createdAt,value
2018-02-24T00:01:40.058Z,-3.40
2018-02-24T00:04:08.514Z,-3.40
2018-02-24T00:06:37.093Z,-3.80
2018-02-24T00:09:04.891Z,-3.80
2018-02-24T00:11:34.072Z,-4.10
2018-02-24T00:14:02.518Z,-4.00
2018-02-24T00:16:31.723Z,-3.50
2018-02-24T00:19:00.202Z,-3.50
2018-02-24T00:21:28.663Z,-3.50
2018-02-24T00:23:57.127Z,-3.40
2018-02-24T00:26:25.572Z,-3.30
2018-02-24T00:28:54.788Z,-3.50
2018-02-24T00:31:23.274Z,-3.60
2018-02-24T00:33:51.732Z,-3.60
2018-02-24T00:36:20.158Z,-3.60
2018-02-24T00:38:48.602Z,-3.50
2018-02-24T00:41:17.068Z,-3.60
2018-02-24T00:43:45.372Z,-3.40
2018-02-24T00:46:13.815Z,-3.40
2018-02-24T00:48:42.242Z,-3.40
2018-02-24T00:51:11.312Z,-3.40
2018-02-24T00:53:39.566Z,-3.40
2018-02-24T00:56:09.359Z,-3.70
2018-02-24T00:58:37.683Z,-3.70
2018-02-24T01:01:07.994Z,-3.90
2018-02-24T01:03:40.447Z,-3.90
2018-02-24T01:06:09.703Z,-4.00
2018-02-24T01:08:39.765Z,-3.90
2018-02-24T01:11:09.018Z,-3.90
2018-02-24T01:13:37.440Z,-4.00
2018-02-24T01:16:07.138Z,-3.80
2018-02-24T01:18:35.594Z,-3.70
2018-02-24T01:21:04.593Z,-4.00
2018-02-24T01:23:33.620Z,-3.80
2018-02-24T01:26:02.159Z,-3.80
2018-02-24T01:28:30.635Z,-3.70
2018-02-24T01:30:59.900Z,-3.70
2018-02-24T01:33:28.341Z,-3.70
2018-02-24T01:35:56.771Z,-3.70
2018-02-24T01:38:25.984Z,-3.70
2018-02-24T01:40:54.411Z,-3.70
2018-02-24T01:43:23.633Z,-3.90
2018-02-24T01:45:52.071Z,-3.90
2018-02-24T01:48:20.513Z,-3.90
2018-02-24T01:50:49.727Z,-3.70
2018-02-24T01:53:18.175Z,-3.70
2018-02-24T01:55:46.640Z,-3.70
2018-02-24T01:58:15.115Z,-3.80
2018-02-24T02:00:43.576Z,-3.70
2018-02-24T02:03:12.034Z,-3.80
2018-02-24T02:05:40.470Z,-3.90
2018-02-24T02:08:09.167Z,-3.90
2018-02-24T02:10:37.886Z,-4.00
2018-02-24T02:13:06.011Z,-4.10
2018-02-24T02:15:35.198Z,-4.10
2018-02-24T02:18:03.609Z,-4.10
2018-02-24T02:20:32.021Z,-4.20
2018-02-24T02:23:00.442Z,-4.30
2018-02-24T02:25:28.908Z,-4.20
2018-02-24T02:27:57.348Z,-4.30
2018-02-24T02:30:25.767Z,-4.20
2018-02-24T02:32:54.228Z,-4.20
2018-02-24T02:35:22.318Z,-4.10
2018-02-24T02:37:50.438Z,-4.20
2018-02-24T02:40:19.087Z,-4.20
2018-02-24T02:42:47.561Z,-4.30
2018-02-24T02:45:15.982Z,-4.30
2018-02-24T02:47:45.222Z,-4.40
2018-02-24T02:50:13.656Z,-4.50
2018-02-24T02:52:42.130Z,-4.80
2018-02-24T02:55:10.567Z,-4.90
2018-02-24T02:57:39.736Z,-5.30
2018-02-24T03:00:09.110Z,-5.20
2018-02-24T03:02:38.886Z,-4.90
2018-02-24T03:05:07.596Z,-4.90
2018-02-24T03:07:36.958Z,-5.20
2018-02-24T03:10:05.811Z,-5.20
2018-02-24T03:12:34.232Z,-5.20
2018-02-24T03:15:05.910Z,-5.20
2018-02-24T03:17:34.372Z,-5.30
2018-02-24T03:20:02.860Z,-5.30
2018-02-24T03:22:31.342Z,-5.00
2018-02-24T03:24:59.781Z,-4.80
2018-02-24T03:27:29.249Z,-4.60
2018-02-24T03:29:57.380Z,-4.60
2018-02-24T03:32:25.874Z,-4.50
2018-02-24T03:34:54.333Z,-4.80
2018-02-24T03:37:22.837Z,-4.60
2018-02-24T03:39:51.351Z,-4.70
2018-02-24T03:42:20.065Z,-4.60
2018-02-24T03:44:48.570Z,-4.60
2018-02-24T03:47:17.047Z,-4.60
2018-02-24T03:49:45.308Z,-4.60
2018-02-24T03:52:13.849Z,-4.60
2018-02-24T03:54:42.085Z,-4.70
2018-02-24T03:57:10.790Z,-4.70
2018-02-24T03:59:41.731Z,-4.70
2018-02-24T04:02:10.446Z,-4.70
2018-02-24T04:04:39.724Z,-4.70
2018-02-24T04:07:08.790Z,-4.70
2018-02-24T04:09:37.466Z,-4.70
2018-02-24T04:12:07.828Z,-4.70
2018-02-24T04:14:36.568Z,-4.80
2018-02-24T04:17:04.788Z,-4.90
2018-02-24T04:19:33.759Z,-4.90
2018-02-24T04:22:02.434Z,-4.90
2018-02-24T04:24:31.095Z,-4.90
2018-02-24T04:26:59.774Z,-4.90
2018-02-24T04:29:28.445Z,-4.90
2018-02-24T04:31:57.879Z,-5.20
2018-02-24T04:34:26.607Z,-5.20
2018-02-24T04:36:55.297Z,-5.10
2018-02-24T04:39:24.076Z,-5.10
2018-02-24T04:41:52.749Z,-5.40
2018-02-24T04:44:21.419Z,-5.70
2018-02-24T04:46:50.084Z,-5.60
2018-02-24T04:49:18.746Z,-5.50
2018-02-24T04:51:48.186Z,-5.30
2018-02-24T04:54:16.846Z,-5.30
2018-02-24T04:56:45.568Z,-5.20
2018-02-24T04:59:13.901Z,-5.40
2018-02-24T05:01:43.356Z,-5.40
2018-02-24T05:04:12.022Z,-5.40
2018-02-24T05:06:40.677Z,-5.40
2018-02-24T05:09:09.414Z,-5.30
2018-02-24T05:11:38.082Z,-5.20
2018-02-24T05:14:07.395Z,-5.40
2018-02-24T05:16:36.057Z,-5.30
2018-02-24T05:19:04.747Z,-5.30
2018-02-24T05:21:33.405Z,-5.50
2018-02-24T05:24:02.082Z,-5.50
2018-02-24T05:26:31.556Z,-5.50
2018-02-24T05:29:00.264Z,-5.60
2018-02-24T05:31:29.706Z,-5.40
2018-02-24T05:33:58.366Z,-5.50
2018-02-24T05:36:27.029Z,-5.50
2018-02-24T05:38:56.458Z,-5.40
2018-02-24T05:41:25.122Z,-5.40
2018-02-24T05:43:54.571Z,-5.50
2018-02-24T05:46:23.262Z,-5.50
2018-02-24T05:48:51.928Z,-5.50
2018-02-24T05:51:20.595Z,-5.50
2018-02-24T05:53:49.285Z,-5.50
2018-02-24T05:56:17.955Z,-5.50
2018-02-24T05:58:46.678Z,-5.50
2018-02-24T06:01:15.354Z,-5.50
2018-02-24T06:03:44.048Z,-5.50
2018-02-24T06:06:12.713Z,-5.50
2018-02-24T06:08:41.422Z,-5.70
2018-02-24T06:11:10.106Z,-5.70
2018-02-24T06:13:38.767Z,-6.00
2018-02-24T06:16:07.902Z,-5.80
2018-02-24T06:18:37.850Z,-5.80
2018-02-24T06:21:07.863Z,-5.80
2018-02-24T06:23:37.831Z,-5.80
2018-02-24T06:26:06.720Z,-5.80
2018-02-24T06:28:35.067Z,-5.80
2018-02-24T06:31:03.732Z,-5.70
2018-02-24T06:33:33.174Z,-6.00
2018-02-24T06:36:01.830Z,-6.00
2018-02-24T06:38:30.491Z,-5.90
2018-02-24T06:40:58.967Z,-6.00
2018-02-24T06:43:27.444Z,-6.10
2018-02-24T06:45:56.124Z,-6.00
2018-02-24T06:48:24.791Z,-5.90
2018-02-24T06:50:53.471Z,-5.80
2018-02-24T06:53:22.130Z,-5.80
2018-02-24T06:55:50.806Z,-5.80
2018-02-24T06:58:19.475Z,-6.00
2018-02-24T07:00:48.910Z,-5.80
2018-02-24T07:03:17.793Z,-5.80
2018-02-24T07:05:46.442Z,-5.70
2018-02-24T07:08:15.863Z,-5.80
2018-02-24T07:10:45.300Z,-5.80
2018-02-24T07:13:14.006Z,-5.80
2018-02-24T07:15:42.651Z,-5.70
2018-02-24T07:18:11.330Z,-6.00
2018-02-24T07:20:40.001Z,-5.70
2018-02-24T07:23:09.436Z,-5.60
2018-02-24T07:25:38.103Z,-5.60
2018-02-24T07:28:07.466Z,-5.50
2018-02-24T07:30:36.147Z,-5.90
2018-02-24T07:33:04.806Z,-5.70
2018-02-24T07:35:36.799Z,-5.50
2018-02-24T07:38:05.511Z,-5.50
2018-02-24T07:40:37.362Z,-5.40
2018-02-24T07:43:07.471Z,-5.20
2018-02-24T07:45:36.968Z,-5.10
2018-02-24T07:48:05.649Z,-5.10
2018-02-24T07:50:34.314Z,-5.10
2018-02-24T07:53:03.008Z,-5.20
2018-02-24T07:55:31.671Z,-5.00
2018-02-24T07:58:00.330Z,-5.20
2018-02-24T08:00:29.032Z,-5.40
2018-02-24T08:02:57.684Z,-5.20
2018-02-24T08:05:26.364Z,-5.30
2018-02-24T08:07:55.785Z,-4.80
2018-02-24T08:10:24.518Z,-4.80
2018-02-24T08:12:53.187Z,-4.60
2018-02-24T08:15:21.906Z,-4.60
2018-02-24T08:17:51.354Z,-4.60
2018-02-24T08:20:20.023Z,-4.60
2018-02-24T08:22:48.709Z,-4.40
2018-02-24T08:25:17.755Z,-4.40
2018-02-24T08:27:47.235Z,-4.70
2018-02-24T08:30:15.659Z,-4.70
2018-02-24T08:32:44.233Z,-4.40
2018-02-24T08:35:12.670Z,-4.40
2018-02-24T08:37:41.350Z,-4.60
2018-02-24T08:40:09.763Z,-4.50
2018-02-24T08:42:38.939Z,-4.30
2018-02-24T08:45:07.341Z,-4.30
2018-02-24T08:47:36.007Z,-4.30
2018-02-24T08:50:04.767Z,-4.30
2018-02-24T08:52:33.191Z,-4.20
2018-02-24T08:55:02.349Z,-4.20
2018-02-24T08:57:30.752Z,-4.30
2018-02-24T08:59:59.927Z,-4.00
2018-02-24T09:02:28.308Z,-4.00
2018-02-24T09:04:56.719Z,-4.10
2018-02-24T09:07:25.105Z,-3.90
2018-02-24T09:09:54.552Z,-4.00
2018-02-24T09:12:22.958Z,-4.00
2018-02-24T09:14:51.389Z,-4.10
2018-02-24T09:17:19.794Z,-4.20
2018-02-24T09:19:48.181Z,-4.20
2018-02-24T09:22:16.582Z,-4.10
2018-02-24T09:24:45.743Z,-4.10
2018-02-24T09:27:14.138Z,-4.10
2018-02-24T09:29:42.529Z,-3.90
2018-02-24T09:32:11.668Z,-3.80
2018-02-24T09:34:40.089Z,-3.90
2018-02-24T09:37:09.082Z,-3.70
2018-02-24T09:39:37.964Z,-4.20
2018-02-24T09:42:06.622Z,-4.00
2018-02-24T09:44:35.037Z,-3.80
2018-02-24T09:47:04.189Z,-3.70
2018-02-24T09:49:32.598Z,-3.70
2018-02-24T09:52:00.982Z,-3.90
2018-02-24T09:54:30.205Z,-3.60
2018-02-24T09:56:58.589Z,-3.60
2018-02-24T09:59:26.975Z,-3.60
2018-02-24T10:01:55.637Z,-3.60
2018-02-24T10:04:24.099Z,-3.70
2018-02-24T10:06:52.676Z,-3.80
2018-02-24T10:09:21.062Z,-3.90
2018-02-24T10:11:50.250Z,-3.90
2018-02-24T10:14:18.637Z,-3.90
2018-02-24T10:16:47.787Z,-3.60
2018-02-24T10:19:16.196Z,-3.70
2018-02-24T10:21:44.572Z,-3.30
2018-02-24T10:24:13.031Z,-3.00
2018-02-24T10:26:41.427Z,-2.90
2018-02-24T10:29:09.809Z,-2.80
2018-02-24T10:31:38.269Z,-2.70
2018-02-24T10:34:08.195Z,-2.50
2018-02-24T10:36:36.676Z,-2.60
2018-02-24T10:39:04.407Z,-2.60
2018-02-24T10:41:32.826Z,-2.80
2018-02-24T10:44:01.211Z,-3.00
2018-02-24T10:46:30.365Z,-2.80
2018-02-24T10:49:10.014Z,-2.80
2018-02-24T10:51:39.960Z,-2.70
2018-02-24T10:54:09.910Z,-2.70
2018-02-24T10:56:38.296Z,-2.80
2018-02-24T10:59:06.766Z,-2.80
2018-02-24T11:01:35.141Z,-2.70
2018-02-24T11:04:03.533Z,-2.70
2018-02-24T11:06:31.941Z,-2.70
2018-02-24T11:09:00.341Z,-2.60
2018-02-24T11:11:29.510Z,-2.20
2018-02-24T11:13:57.948Z,-2.20
2018-02-24T11:16:26.341Z,-2.10
2018-02-24T11:18:54.747Z,-1.80
2018-02-24T11:21:23.160Z,-2.00
2018-02-24T11:23:52.327Z,-1.90
2018-02-24T11:26:20.719Z,-1.90
2018-02-24T11:28:49.894Z,-2.00
2018-02-24T11:31:18.311Z,-2.00
2018-02-24T11:33:46.905Z,-1.70
2018-02-24T11:36:15.288Z,-1.70
2018-02-24T11:38:44.283Z,-1.50
2018-02-24T11:41:12.677Z,-1.50
2018-02-24T11:43:40.885Z,-1.40
2018-02-24T11:46:10.289Z,-1.50
2018-02-24T11:48:39.414Z,-1.70
2018-02-24T11:51:07.812Z,-1.70
2018-02-24T11:53:36.199Z,-1.80
2018-02-24T11:56:05.366Z,-1.70
2018-02-24T11:58:33.766Z,-1.60
2018-02-24T12:01:02.142Z,-1.60
2018-02-24T12:03:30.556Z,-1.60
2018-02-24T12:05:59.148Z,-1.70
2018-02-24T12:08:27.516Z,-1.40
2018-02-24T12:10:55.910Z,-1.40
2018-02-24T12:13:25.063Z,-1.30
2018-02-24T12:15:53.465Z,-1.30
2018-02-24T12:18:21.847Z,-1.40
2018-02-24T12:20:50.225Z,-1.30
2018-02-24T12:23:18.626Z,-1.10
2018-02-24T12:25:47.786Z,-1.10
2018-02-24T12:28:16.177Z,-1.10
2018-02-24T12:30:44.795Z,-2.50
2018-02-24T12:33:13.867Z,-1.00
2018-02-24T12:35:42.259Z,-1.00
2018-02-24T12:38:10.646Z,-0.90
2018-02-24T12:40:39.041Z,-0.70
2018-02-24T12:43:07.430Z,-0.60
2018-02-24T12:45:35.841Z,-0.70
2018-02-24T12:48:04.225Z,-0.80
2018-02-24T12:50:33.396Z,-0.80
2018-02-24T12:53:01.786Z,-0.80
2018-02-24T12:55:30.196Z,-0.70
2018-02-24T12:57:58.578Z,-0.60
2018-02-24T13:00:26.790Z,-0.50
2018-02-24T13:02:55.164Z,-0.30
2018-02-24T13:05:24.348Z,-0.10
2018-02-24T13:07:52.717Z,-0.10
2018-02-24T13:10:21.090Z,0.10
2018-02-24T13:12:49.489Z,0.30
2018-02-24T13:15:17.863Z,0.20
2018-02-24T13:17:47.003Z,0.30
2018-02-24T13:20:16.168Z,0.30
2018-02-24T13:22:44.349Z,0.30
2018-02-24T13:25:14.491Z,0.20
2018-02-24T13:27:44.217Z,0.30
2018-02-24T13:30:12.614Z,0.20
2018-02-24T13:32:41.895Z,0.30
2018-02-24T13:35:10.287Z,0.30
2018-02-24T13:37:38.478Z,0.40
2018-02-24T13:40:06.894Z,0.40
2018-02-24T13:42:35.268Z,0.50
2018-02-24T13:45:03.338Z,0.60
2018-02-24T13:47:31.534Z,0.60
2018-02-24T13:50:00.680Z,0.70
2018-02-24T13:52:29.146Z,0.70
2018-02-24T13:54:57.522Z,0.60
2018-02-24T13:57:25.923Z,0.70
2018-02-24T13:59:54.300Z,0.70
2018-02-24T14:02:22.717Z,0.60
2018-02-24T14:04:51.852Z,0.70
2018-02-24T14:07:20.213Z,0.70
2018-02-24T14:09:48.606Z,0.80
2018-02-24T14:12:17.041Z,0.90
2018-02-24T14:14:46.214Z,0.80
2018-02-24T14:17:14.598Z,0.80
2018-02-24T14:19:43.021Z,0.80
2018-02-24T14:22:11.426Z,0.80
2018-02-24T14:24:39.792Z,0.80
2018-02-24T14:27:08.201Z,0.90
2018-02-24T14:29:36.586Z,0.90
2018-02-24T14:32:05.741Z,0.90
2018-02-24T14:34:34.133Z,0.90
2018-02-24T14:37:02.402Z,0.90
2018-02-24T14:39:30.778Z,1.00
2018-02-24T14:41:59.157Z,1.10
2018-02-24T14:44:27.589Z,1.00
2018-02-24T14:46:56.726Z,0.90
2018-02-24T14:49:25.118Z,0.90
2018-02-24T14:51:53.481Z,0.90
2018-02-24T14:54:22.620Z,0.90
2018-02-24T14:56:51.759Z,0.80
2018-02-24T14:59:19.962Z,0.80
2018-02-24T15:01:48.345Z,0.90
2018-02-24T15:04:16.807Z,0.80
2018-02-24T15:06:45.931Z,1.00
2018-02-24T15:09:14.954Z,0.90
2018-02-24T15:11:43.552Z,0.90
2018-02-24T15:14:11.923Z,0.80
2018-02-24T15:16:40.294Z,0.80
2018-02-24T15:19:08.695Z,0.80
2018-02-24T15:21:36.898Z,0.80
2018-02-24T15:24:05.274Z,0.80
2018-02-24T15:26:33.671Z,0.80
2018-02-24T15:29:02.616Z,0.80
2018-02-24T15:31:31.010Z,0.80
2018-02-24T15:33:59.401Z,0.70
2018-02-24T15:36:27.606Z,0.70
2018-02-24T15:38:56.167Z,0.60
2018-02-24T15:41:25.215Z,0.50
2018-02-24T15:43:53.293Z,0.40
2018-02-24T15:46:21.698Z,0.50
2018-02-24T15:48:50.082Z,0.40
2018-02-24T15:51:19.225Z,0.30
2018-02-24T15:53:47.621Z,0.30
2018-02-24T15:56:16.047Z,0.20
2018-02-24T15:58:45.221Z,0.10
2018-02-24T16:01:13.598Z,0.00
2018-02-24T16:03:41.982Z,0.00
2018-02-24T16:06:11.163Z,0.00
2018-02-24T16:08:39.546Z,-0.10
2018-02-24T16:11:07.941Z,-0.20
2018-02-24T16:13:37.115Z,-0.20
2018-02-24T16:16:05.518Z,-0.20
2018-02-24T16:18:34.690Z,-0.50
2018-02-24T16:21:03.086Z,-0.50
2018-02-24T16:23:32.258Z,-0.40
2018-02-24T16:26:00.643Z,-0.40
2018-02-24T16:28:28.851Z,-0.50
2018-02-24T16:30:57.243Z,-0.50
2018-02-24T16:33:25.646Z,-0.60
2018-02-24T16:35:54.041Z,-0.80
2018-02-24T16:38:22.474Z,-1.10
2018-02-24T16:40:51.032Z,-1.00
2018-02-24T16:43:20.196Z,-0.80
2018-02-24T16:45:48.584Z,-0.90
2018-02-24T16:48:16.983Z,-0.80
2018-02-24T16:50:46.898Z,-0.90
2018-02-24T16:53:16.919Z,-0.90
2018-02-24T16:55:45.301Z,-1.00
2018-02-24T16:58:13.699Z,-0.90
2018-02-24T17:00:42.086Z,-1.20
2018-02-24T17:03:10.494Z,-1.50
2018-02-24T17:05:38.878Z,-1.60
2018-02-24T17:08:07.270Z,-1.40
2018-02-24T17:10:36.072Z,-1.40
2018-02-24T17:13:04.465Z,-1.40
2018-02-24T17:15:32.902Z,-1.40
2018-02-24T17:18:01.300Z,-1.50
2018-02-24T17:20:30.459Z,-1.90
2018-02-24T17:22:58.876Z,-1.90
2018-02-24T17:25:27.257Z,-1.70
2018-02-24T17:27:55.654Z,-1.90
2018-02-24T17:30:24.035Z,-1.80
2018-02-24T17:32:52.454Z,-2.00
2018-02-24T17:35:20.834Z,-2.10
2018-02-24T17:37:49.032Z,-1.90
2018-02-24T17:40:19.167Z,-1.70
2018-02-24T17:42:47.367Z,-1.70
2018-02-24T17:45:16.143Z,-1.80
2018-02-24T17:47:45.457Z,-1.80
2018-02-24T17:50:13.896Z,-1.90
2018-02-24T17:52:42.285Z,-2.00
2018-02-24T17:55:10.675Z,-2.10
2018-02-24T17:57:39.082Z,-2.20
2018-02-24T18:00:07.483Z,-2.30
2018-02-24T18:02:36.651Z,-2.50
2018-02-24T18:05:05.052Z,-2.50
2018-02-24T18:07:33.450Z,-2.50
2018-02-24T18:10:02.632Z,-2.30
2018-02-24T18:12:31.792Z,-2.20
2018-02-24T18:15:00.194Z,-2.20
2018-02-24T18:17:28.581Z,-2.30
2018-02-24T18:19:57.744Z,-2.60
2018-02-24T18:22:26.909Z,-2.40
2018-02-24T18:24:55.314Z,-2.40
2018-02-24T18:27:23.689Z,-2.70
2018-02-24T18:29:52.090Z,-2.80
2018-02-24T18:32:20.471Z,-2.90
2018-02-24T18:34:48.863Z,-2.80
2018-02-24T18:37:18.021Z,-2.70
2018-02-24T18:39:46.412Z,-2.80
2018-02-24T18:42:14.812Z,-2.60
2018-02-24T18:44:43.970Z,-2.50
2018-02-24T18:47:12.180Z,-2.60
2018-02-24T18:49:41.397Z,-2.70
2018-02-24T18:52:09.785Z,-2.70
2018-02-24T18:54:38.199Z,-2.70
2018-02-24T18:57:06.620Z,-2.60
2018-02-24T18:59:35.776Z,-2.70
2018-02-24T19:02:04.168Z,-2.70
2018-02-24T19:04:32.574Z,-2.70
2018-02-24T19:07:00.949Z,-2.70
2018-02-24T19:09:30.109Z,-3.00
2018-02-24T19:11:58.505Z,-3.00
2018-02-24T19:14:27.447Z,-3.10
2018-02-24T19:16:55.970Z,-3.20
2018-02-24T19:19:24.369Z,-3.30
2018-02-24T19:21:53.522Z,-3.40
2018-02-24T19:24:21.924Z,-3.40
2018-02-24T19:26:50.371Z,-3.30
2018-02-24T19:29:19.348Z,-3.20
2018-02-24T19:31:47.720Z,-3.20
2018-02-24T19:34:16.132Z,-3.20
2018-02-24T19:36:44.535Z,-3.20
2018-02-24T19:39:13.686Z,-3.40
2018-02-24T19:41:42.084Z,-3.40
2018-02-24T19:44:10.492Z,-3.50
2018-02-24T19:46:39.664Z,-3.50
2018-02-24T19:49:08.061Z,-3.60
2018-02-24T19:51:37.232Z,-3.30
2018-02-24T19:54:05.662Z,-3.30
2018-02-24T19:56:34.076Z,-3.30
2018-02-24T19:59:02.451Z,-3.40
2018-02-24T20:01:30.920Z,-3.30
2018-02-24T20:03:59.744Z,-3.30
2018-02-24T20:06:28.092Z,-3.30
2018-02-24T20:08:56.464Z,-3.40
2018-02-24T20:11:24.846Z,-3.50
2018-02-24T20:13:53.247Z,-3.70
2018-02-24T20:16:21.729Z,-3.60
2018-02-24T20:18:50.135Z,-3.50
2018-02-24T20:21:18.515Z,-3.50
2018-02-24T20:23:47.722Z,-3.80
2018-02-24T20:26:16.559Z,-3.60
2018-02-24T20:28:45.355Z,-3.60
2018-02-24T20:31:13.776Z,-3.60
2018-02-24T20:33:42.173Z,-3.70
2018-02-24T20:36:10.577Z,-3.60
2018-02-24T20:38:38.990Z,-3.90
2018-02-24T20:41:07.376Z,-4.20
2018-02-24T20:43:35.759Z,-4.30
2018-02-24T20:46:03.966Z,-4.30
2018-02-24T20:48:32.356Z,-4.30
2018-02-24T20:51:00.752Z,-4.40
2018-02-24T20:53:29.135Z,-4.60
2018-02-24T20:55:58.110Z,-4.50
2018-02-24T20:58:27.687Z,-4.50
2018-02-24T21:00:57.043Z,-4.30
2018-02-24T21:03:27.059Z,-4.20
2018-02-24T21:05:57.309Z,-4.00
2018-02-24T21:08:26.486Z,-4.10
2018-02-24T21:10:54.897Z,-4.10
2018-02-24T21:13:23.342Z,-4.10
2018-02-24T21:15:51.738Z,-4.40
2018-02-24T21:18:20.122Z,-4.20
2018-02-24T21:20:48.506Z,-4.60
2018-02-24T21:23:17.104Z,-4.50
2018-02-24T21:25:45.530Z,-4.40
2018-02-24T21:28:13.940Z,-4.40
2018-02-24T21:30:42.403Z,-4.30
2018-02-24T21:33:10.855Z,-4.20
2018-02-24T21:35:39.823Z,-4.50
2018-02-24T21:38:08.209Z,-4.50
2018-02-24T21:40:37.410Z,-4.80
2018-02-24T21:43:06.548Z,-4.70
2018-02-24T21:45:34.967Z,-4.70
2018-02-24T21:48:03.393Z,-4.90
2018-02-24T21:50:32.235Z,-4.90
2018-02-24T21:53:00.642Z,-4.80
2018-02-24T21:55:29.306Z,-5.00
2018-02-24T21:57:57.526Z,-4.80
2018-02-24T22:00:26.948Z,-4.80
2018-02-24T22:02:55.326Z,-4.80
2018-02-24T22:05:23.820Z,-5.20
2018-02-24T22:07:52.493Z,-5.10
2018-02-24T22:10:21.233Z,-5.20
2018-02-24T22:12:49.909Z,-5.00
2018-02-24T22:15:18.678Z,-5.00
2018-02-24T22:17:47.015Z,-4.90
2018-02-24T22:20:15.732Z,-5.50
2018-02-24T22:22:44.399Z,-5.40
2018-02-24T22:25:12.896Z,-5.30
2018-02-24T22:27:41.398Z,-5.00
2018-02-24T22:30:10.058Z,-5.00
2018-02-24T22:32:38.738Z,-5.00
2018-02-24T22:35:07.423Z,-5.10
2018-02-24T22:37:35.897Z,-5.30
2018-02-24T22:40:04.276Z,-5.30
2018-02-24T22:42:32.968Z,-5.30
2018-02-24T22:45:01.634Z,-5.40
2018-02-24T22:47:35.850Z,-5.60
2018-02-24T22:50:05.032Z,-5.80
2018-02-24T22:52:33.724Z,-5.90
2018-02-24T22:55:02.382Z,-5.70
2018-02-24T22:57:31.791Z,-5.30
2018-02-24T23:00:01.247Z,-5.90
2018-02-24T23:02:45.688Z,-5.90
2018-02-24T23:05:14.392Z,-5.80
2018-02-24T23:07:43.050Z,-5.50
2018-02-24T23:10:11.712Z,-5.50
2018-02-24T23:12:41.452Z,-5.60
2018-02-24T23:15:10.106Z,-6.00
2018-02-24T23:17:38.757Z,-5.90
2018-02-24T23:20:07.423Z,-5.80
2018-02-24T23:22:36.083Z,-5.90
2018-02-24T23:25:04.772Z,-5.70
2018-02-24T23:27:33.438Z,-5.90
2018-02-24T23:30:01.912Z,-5.80
2018-02-24T23:32:30.582Z,-5.90
2018-02-24T23:34:59.252Z,-6.10
2018-02-24T23:37:28.669Z,-6.40
2018-02-24T23:39:57.154Z,-6.40
2018-02-24T23:42:25.803Z,-6.10
2018-02-24T23:44:54.470Z,-6.00
2018-02-24T23:47:24.566Z,-6.00
2018-02-24T23:49:53.227Z,-6.10
2018-02-24T23:52:21.903Z,-6.20
2018-02-24T23:54:50.574Z,-6.10
2018-02-24T23:57:20.022Z,-6.00
2018-02-24T23:59:49.463Z,-6.10
